createdAt,value
2019-03-05T00:00:36.054Z,94575.28
2019-03-05T00:03:05.719Z,94583.61
2019-03-05T00:05:35.563Z,94562.53
2019-03-05T00:08:05.160Z,94567.37
2019-03-05T00:10:34.915Z,94558.55
2019-03-05T00:13:04.598Z,94552.15
2019-03-05T00:15:34.327Z,94550.26
2019-03-05T00:18:04.143Z,94554.30
2019-03-05T00:20:35.225Z,94557.05
2019-03-05T00:23:04.976Z,94550.01
2019-03-05T00:25:34.594Z,94545.48
2019-03-05T00:28:11.196Z,94540.14
2019-03-05T00:30:46.891Z,94544.48
2019-03-05T00:33:49.022Z,94544.48
2019-03-05T00:36:35.100Z,94551.64
2019-03-05T00:39:54.212Z,94554.34
2019-03-05T00:43:12.836Z,94554.53
2019-03-05T00:45:58.318Z,94554.73
2019-03-05T00:48:50.778Z,94542.09
2019-03-05T00:51:47.014Z,94541.75
2019-03-05T00:54:40.583Z,94561.73
2019-03-05T00:57:22.073Z,94550.23
2019-03-05T01:00:15.814Z,94551.52
2019-03-05T01:03:45.544Z,94561.19
2019-03-05T01:06:25.450Z,94560.77
2019-03-05T01:08:56.508Z,94560.37
2019-03-05T01:11:26.323Z,94557.80
2019-03-05T01:13:56.121Z,94573.48
2019-03-05T01:16:30.322Z,94576.55
2019-03-05T01:19:00.016Z,94576.25
2019-03-05T01:21:29.648Z,94579.25
2019-03-05T01:23:59.278Z,94555.32
2019-03-05T01:26:28.899Z,94559.08
2019-03-05T01:28:58.580Z,94555.93
2019-03-05T01:31:53.053Z,94543.38
2019-03-05T01:34:40.454Z,94534.83
2019-03-05T01:37:10.408Z,94549.95
2019-03-05T01:39:49.181Z,94548.27
2019-03-05T01:42:19.044Z,94535.06
2019-03-05T01:44:48.635Z,94542.36
2019-03-05T01:47:18.290Z,94541.09
2019-03-05T01:49:47.976Z,94551.02
2019-03-05T01:52:17.755Z,94541.70
2019-03-05T01:54:47.531Z,94530.13
2019-03-05T01:57:17.050Z,94520.15
2019-03-05T01:59:46.660Z,94518.83
2019-03-05T02:02:16.279Z,94512.40
2019-03-05T02:04:46.023Z,94514.36
2019-03-05T02:07:15.910Z,94516.11
2019-03-05T02:09:45.672Z,94511.67
2019-03-05T02:12:15.523Z,94503.58
2019-03-05T02:14:45.123Z,94498.05
2019-03-05T02:17:14.756Z,94502.62
2019-03-05T02:19:52.419Z,94494.41
2019-03-05T02:22:36.941Z,94497.95
2019-03-05T02:25:29.068Z,94495.69
2019-03-05T02:28:10.403Z,94489.30
2019-03-05T02:31:11.092Z,94496.02
2019-03-05T02:34:08.485Z,94497.66
2019-03-05T02:37:18.465Z,94491.67
2019-03-05T02:40:09.461Z,94496.11
2019-03-05T02:43:10.063Z,94506.69
2019-03-05T02:46:01.813Z,94501.33
2019-03-05T02:49:30.375Z,94504.36
2019-03-05T02:52:43.309Z,94491.73
2019-03-05T02:55:42.969Z,94485.62
2019-03-05T02:58:10.651Z,94486.25
2019-03-05T03:01:02.125Z,94488.28
2019-03-05T03:03:35.783Z,94491.13
2019-03-05T03:06:12.071Z,94490.27
2019-03-05T03:08:41.549Z,94476.79
2019-03-05T03:11:11.247Z,94476.11
2019-03-05T03:13:40.912Z,94476.92
2019-03-05T03:16:10.915Z,94486.72
2019-03-05T03:18:40.452Z,94498.33
2019-03-05T03:21:10.097Z,94509.77
2019-03-05T03:23:39.755Z,94514.17
2019-03-05T03:26:09.425Z,94513.73
2019-03-05T03:28:39.027Z,94512.73
2019-03-05T03:31:08.718Z,94517.34
2019-03-05T03:33:38.390Z,94518.75
2019-03-05T03:36:08.039Z,94540.73
2019-03-05T03:38:37.674Z,94540.89
2019-03-05T03:41:07.441Z,94541.88
2019-03-05T03:43:36.983Z,94535.23
2019-03-05T03:46:06.743Z,94522.88
2019-03-05T03:48:36.340Z,94531.08
2019-03-05T03:51:06.262Z,94540.44
2019-03-05T03:53:36.097Z,94528.84
2019-03-05T03:56:05.859Z,94535.11
2019-03-05T03:58:35.793Z,94541.16
2019-03-05T04:01:07.153Z,94535.59
2019-03-05T04:03:37.243Z,94549.55
2019-03-05T04:06:06.891Z,94559.41
2019-03-05T04:08:36.555Z,94557.73
2019-03-05T04:11:06.338Z,94558.84
2019-03-05T04:13:35.941Z,94564.61
2019-03-05T04:16:05.729Z,94555.75
2019-03-05T04:18:35.351Z,94551.71
2019-03-05T04:21:06.122Z,94557.89
2019-03-05T04:23:35.696Z,94555.33
2019-03-05T04:26:05.356Z,94554.72
2019-03-05T04:28:35.135Z,94564.76
2019-03-05T04:31:04.856Z,94565.63
2019-03-05T04:33:34.444Z,94561.64
2019-03-05T04:36:04.365Z,94561.64
2019-03-05T04:38:34.094Z,94578.69
2019-03-05T04:41:03.904Z,94571.78
2019-03-05T04:43:33.550Z,94576.53
2019-03-05T04:46:22.182Z,94567.19
2019-03-05T04:49:10.693Z,94567.19
2019-03-05T04:51:46.988Z,94576.66
2019-03-05T04:54:16.760Z,94585.34
2019-03-05T04:56:46.491Z,94576.97
2019-03-05T04:59:16.172Z,94581.64
2019-03-05T05:01:45.716Z,94598.36
2019-03-05T05:04:15.281Z,94599.23
2019-03-05T05:06:44.865Z,94599.23
2019-03-05T05:09:14.467Z,94604.11
2019-03-05T05:11:44.026Z,94598.36
2019-03-05T05:14:13.749Z,94601.30
2019-03-05T05:16:43.539Z,94606.25
2019-03-05T05:19:13.179Z,94602.15
2019-03-05T05:21:42.900Z,94605.52
2019-03-05T05:24:12.463Z,94603.56
2019-03-05T05:26:42.105Z,94613.27
2019-03-05T05:29:11.714Z,94612.03
2019-03-05T05:31:41.143Z,94611.41
2019-03-05T05:34:10.864Z,94594.23
2019-03-05T05:36:40.508Z,94590.98
2019-03-05T05:39:46.941Z,94598.34
2019-03-05T05:42:16.557Z,94608.93
2019-03-05T05:44:46.151Z,94616.24
2019-03-05T05:47:15.842Z,94621.63
2019-03-05T05:49:45.498Z,94629.03
2019-03-05T05:52:15.186Z,94632.36
2019-03-05T05:54:44.900Z,94615.41
2019-03-05T05:57:14.578Z,94624.52
2019-03-05T05:59:44.307Z,94612.73
2019-03-05T06:02:14.096Z,94612.73
2019-03-05T06:04:43.727Z,94571.59
2019-03-05T06:07:13.498Z,94597.77
2019-03-05T06:09:43.128Z,94617.42
2019-03-05T06:12:12.638Z,94615.80
2019-03-05T06:14:43.342Z,94635.66
2019-03-05T06:17:13.073Z,94635.66
2019-03-05T06:19:42.806Z,94627.47
2019-03-05T06:22:13.944Z,94621.41
2019-03-05T06:24:43.774Z,94627.00
2019-03-05T06:27:13.467Z,94630.58
2019-03-05T06:29:43.080Z,94625.09
2019-03-05T06:32:12.669Z,94638.06
2019-03-05T06:34:44.014Z,94638.16
2019-03-05T06:37:13.649Z,94641.83
2019-03-05T06:39:43.380Z,94647.30
2019-03-05T06:42:13.091Z,94659.41
2019-03-05T06:44:42.870Z,94657.43
2019-03-05T06:47:14.106Z,94653.86
2019-03-05T06:49:43.768Z,94652.02
2019-03-05T06:52:14.920Z,94646.23
2019-03-05T06:54:45.632Z,94653.60
2019-03-05T06:57:17.569Z,94657.96
2019-03-05T06:59:47.101Z,94655.00
2019-03-05T07:02:18.662Z,94655.98
2019-03-05T07:04:59.098Z,94654.66
2019-03-05T07:07:34.554Z,94659.09
2019-03-05T07:10:30.141Z,94663.60
2019-03-05T07:13:18.105Z,94662.56
2019-03-05T07:16:11.488Z,94674.32
2019-03-05T07:19:01.807Z,94675.82
2019-03-05T07:22:06.952Z,94676.86
2019-03-05T07:24:50.589Z,94679.29
2019-03-05T07:27:31.307Z,94667.55
2019-03-05T07:30:05.565Z,94664.95
2019-03-05T07:32:37.574Z,94672.61
2019-03-05T07:35:11.048Z,94675.06
2019-03-05T07:37:40.608Z,94669.11
2019-03-05T07:40:11.130Z,94660.95
2019-03-05T07:42:40.836Z,94668.11
2019-03-05T07:45:10.884Z,94683.11
2019-03-05T07:47:40.554Z,94696.61
2019-03-05T07:50:10.441Z,94684.92
2019-03-05T07:52:40.194Z,94694.45
2019-03-05T07:55:17.499Z,94703.14
2019-03-05T07:57:48.683Z,94686.63
2019-03-05T08:00:20.910Z,94681.39
2019-03-05T08:02:50.697Z,94683.55
2019-03-05T08:05:20.197Z,94681.55
2019-03-05T08:07:52.914Z,94675.40
2019-03-05T08:10:28.139Z,94681.55
2019-03-05T08:13:30.328Z,94671.97
2019-03-05T08:16:25.201Z,94672.95
2019-03-05T08:18:54.748Z,94678.02
2019-03-05T08:21:24.392Z,94672.59
2019-03-05T08:23:55.303Z,94675.16
2019-03-05T08:26:26.175Z,94680.73
2019-03-05T08:28:55.903Z,94676.95
2019-03-05T08:31:25.474Z,94672.39
2019-03-05T08:33:55.496Z,94674.23
2019-03-05T08:36:25.252Z,94678.78
2019-03-05T08:38:54.893Z,94670.67
2019-03-05T08:41:26.242Z,94664.61
2019-03-05T08:43:55.966Z,94672.61
2019-03-05T08:46:25.594Z,94679.02
2019-03-05T08:48:55.255Z,94686.04
2019-03-05T08:51:25.117Z,94675.78
2019-03-05T08:53:56.827Z,94679.66
2019-03-05T08:56:26.065Z,94692.34
2019-03-05T08:58:55.692Z,94676.05
2019-03-05T09:01:26.710Z,94671.44
2019-03-05T09:03:56.345Z,94670.09
2019-03-05T09:06:26.104Z,94672.80
2019-03-05T09:08:57.476Z,94663.86
2019-03-05T09:11:27.034Z,94665.89
2019-03-05T09:13:56.630Z,94659.86
2019-03-05T09:16:26.297Z,94661.00
2019-03-05T09:18:56.099Z,94662.28
2019-03-05T09:21:25.853Z,94662.86
2019-03-05T09:23:55.510Z,94665.31
2019-03-05T09:26:25.232Z,94661.42
2019-03-05T09:28:54.835Z,94664.94
2019-03-05T09:31:25.431Z,94667.19
2019-03-05T09:33:55.016Z,94661.20
2019-03-05T09:36:25.901Z,94666.03
2019-03-05T09:38:57.998Z,94667.24
2019-03-05T09:41:27.607Z,94666.43
2019-03-05T09:43:57.270Z,94666.43
2019-03-05T09:46:26.996Z,94668.72
2019-03-05T09:48:58.223Z,94659.86
2019-03-05T09:51:27.943Z,94663.08
2019-03-05T09:53:57.651Z,94655.16
2019-03-05T09:56:28.946Z,94649.49
2019-03-05T09:58:58.469Z,94657.48
2019-03-05T10:01:28.325Z,94639.00
2019-03-05T10:03:58.073Z,94639.00
2019-03-05T10:06:27.686Z,94640.70
2019-03-05T10:08:57.270Z,94632.80
2019-03-05T10:11:26.842Z,94633.27
2019-03-05T10:13:58.553Z,94633.54
2019-03-05T10:16:31.434Z,94630.13
2019-03-05T10:19:00.960Z,94624.68
2019-03-05T10:21:30.483Z,94630.48
2019-03-05T10:24:09.917Z,94623.78
2019-03-05T10:26:32.731Z,94620.63
2019-03-05T10:29:02.379Z,94622.41
2019-03-05T10:31:33.291Z,94622.80
2019-03-05T10:34:02.989Z,94619.34
2019-03-05T10:36:34.127Z,94615.41
2019-03-05T10:39:05.393Z,94611.36
2019-03-05T10:41:35.073Z,94606.83
2019-03-05T10:44:04.823Z,94605.13
2019-03-05T10:46:35.437Z,94611.53
2019-03-05T10:49:05.244Z,94610.45
2019-03-05T10:51:36.199Z,94611.42
2019-03-05T10:54:06.139Z,94601.11
2019-03-05T10:56:37.548Z,94595.20
2019-03-05T10:59:07.120Z,94593.87
2019-03-05T11:01:37.248Z,94579.27
2019-03-05T11:04:09.757Z,94582.59
2019-03-05T11:06:39.175Z,94579.67
2019-03-05T11:09:12.643Z,94572.19
2019-03-05T11:11:42.195Z,94566.27
2019-03-05T11:14:12.017Z,94565.27
2019-03-05T11:16:41.669Z,94553.30
2019-03-05T11:19:11.413Z,94556.96
2019-03-05T11:21:41.095Z,94557.98
2019-03-05T11:24:10.842Z,94546.27
2019-03-05T11:26:40.509Z,94543.41
2019-03-05T11:29:12.110Z,94542.38
2019-03-05T11:31:44.058Z,94542.93
2019-03-05T11:34:13.778Z,94539.22
2019-03-05T11:36:43.444Z,94535.45
2019-03-05T11:39:13.478Z,94532.52
2019-03-05T11:41:43.209Z,94532.70
2019-03-05T11:44:14.918Z,94532.98
2019-03-05T11:46:44.715Z,94537.28
2019-03-05T11:49:14.379Z,94534.99
2019-03-05T11:51:43.906Z,94536.27
2019-03-05T11:54:13.553Z,94536.16
2019-03-05T11:56:43.265Z,94540.00
2019-03-05T11:59:12.919Z,94531.78
2019-03-05T12:01:46.435Z,94528.97
2019-03-05T12:04:17.558Z,94532.50
2019-03-05T12:06:47.300Z,94534.15
2019-03-05T12:09:16.918Z,94532.79
2019-03-05T12:11:48.625Z,94526.75
2019-03-05T12:14:18.533Z,94526.98
2019-03-05T12:16:48.086Z,94522.42
2019-03-05T12:19:22.312Z,94531.02
2019-03-05T12:21:51.994Z,94534.85
2019-03-05T12:24:24.175Z,94530.64
2019-03-05T12:26:52.948Z,94533.87
2019-03-05T12:29:22.542Z,94532.81
2019-03-05T12:31:52.457Z,94535.63
2019-03-05T12:34:22.172Z,94528.13
2019-03-05T12:36:51.781Z,94534.51
2019-03-05T12:39:22.104Z,94533.09
2019-03-05T12:41:51.797Z,94530.27
2019-03-05T12:44:21.356Z,94539.42
2019-03-05T12:46:53.175Z,94539.91
2019-03-05T12:49:22.870Z,94546.38
2019-03-05T12:51:52.496Z,94549.29
2019-03-05T12:54:22.239Z,94548.84
2019-03-05T12:56:51.810Z,94545.22
2019-03-05T12:59:21.472Z,94538.50
2019-03-05T13:01:51.106Z,94539.44
2019-03-05T13:04:20.707Z,94539.54
2019-03-05T13:06:52.604Z,94536.91
2019-03-05T13:09:22.330Z,94533.12
2019-03-05T13:11:51.975Z,94531.48
2019-03-05T13:14:21.556Z,94528.70
2019-03-05T13:16:51.340Z,94527.84
2019-03-05T13:19:20.986Z,94538.41
2019-03-05T13:21:50.296Z,94539.30
2019-03-05T13:24:20.085Z,94535.20
2019-03-05T13:26:49.556Z,94540.67
2019-03-05T13:29:20.567Z,94537.63
2019-03-05T13:31:50.483Z,94528.31
2019-03-05T13:34:20.065Z,94530.08
2019-03-05T13:36:50.644Z,94536.59
2019-03-05T13:39:23.688Z,94532.03
2019-03-05T13:41:56.971Z,94531.76
2019-03-05T13:44:34.376Z,94539.03
2019-03-05T13:47:05.847Z,94539.69
2019-03-05T13:50:24.155Z,94540.56
2019-03-05T13:53:30.862Z,94538.75
2019-03-05T13:56:25.064Z,94540.41
2019-03-05T13:59:33.959Z,94532.60
2019-03-05T14:02:04.049Z,94528.45
2019-03-05T14:04:58.901Z,94535.13
2019-03-05T14:08:04.159Z,94538.02
2019-03-05T14:10:33.811Z,94539.06
2019-03-05T14:13:04.868Z,94536.97
2019-03-05T14:15:35.146Z,94543.01
2019-03-05T14:18:07.672Z,94541.17
2019-03-05T14:20:39.508Z,94544.58
2019-03-05T14:23:08.851Z,94542.27
2019-03-05T14:25:39.613Z,94547.58
2019-03-05T14:28:10.582Z,94545.09
2019-03-05T14:30:41.132Z,94541.18
2019-03-05T14:33:10.932Z,94541.45
2019-03-05T14:35:41.038Z,94543.28
2019-03-05T14:38:10.966Z,94550.08
2019-03-05T14:40:40.888Z,94553.27
2019-03-05T14:43:10.715Z,94560.91
2019-03-05T14:45:40.546Z,94559.09
2019-03-05T14:48:10.225Z,94557.55
2019-03-05T14:50:42.232Z,94558.63
2019-03-05T14:53:11.980Z,94558.39
2019-03-05T14:55:43.022Z,94553.98
2019-03-05T14:58:12.722Z,94557.65
2019-03-05T15:00:42.450Z,94555.03
2019-03-05T15:03:12.082Z,94546.63
2019-03-05T15:05:41.844Z,94545.59
2019-03-05T15:08:11.638Z,94540.34
2019-03-05T15:10:42.645Z,94537.73
2019-03-05T15:13:17.335Z,94540.38
2019-03-05T15:15:43.960Z,94538.78
2019-03-05T15:18:13.568Z,94541.41
2019-03-05T15:20:43.261Z,94538.24
2019-03-05T15:23:13.057Z,94545.06
2019-03-05T15:25:42.777Z,94539.29
2019-03-05T15:28:12.521Z,94548.25
2019-03-05T15:30:42.137Z,94545.34
2019-03-05T15:33:11.809Z,94549.27
2019-03-05T15:35:41.533Z,94546.13
2019-03-05T15:38:11.169Z,94552.42
2019-03-05T15:40:42.493Z,94544.29
2019-03-05T15:43:12.186Z,94550.84
2019-03-05T15:45:41.847Z,94550.87
2019-03-05T15:48:11.586Z,94554.53
2019-03-05T15:50:41.084Z,94555.31
2019-03-05T15:53:10.577Z,94559.24
2019-03-05T15:55:40.227Z,94561.61
2019-03-05T15:58:10.784Z,94566.84
2019-03-05T16:00:41.239Z,94564.46
2019-03-05T16:03:10.992Z,94566.05
2019-03-05T16:05:41.111Z,94571.55
2019-03-05T16:08:12.894Z,94576.00
2019-03-05T16:10:43.907Z,94578.63
2019-03-05T16:13:15.310Z,94578.37
2019-03-05T16:15:45.818Z,94585.97
2019-03-05T16:18:16.586Z,94599.05
2019-03-05T16:20:46.232Z,94599.28
2019-03-05T16:23:16.011Z,94601.62
2019-03-05T16:25:50.212Z,94603.67
2019-03-05T16:28:19.291Z,94609.70
2019-03-05T16:31:12.487Z,94608.90
2019-03-05T16:34:19.546Z,94616.98
2019-03-05T16:37:13.994Z,94622.92
2019-03-05T16:40:16.751Z,94633.90
2019-03-05T16:42:58.639Z,94632.30
2019-03-05T16:45:42.741Z,94647.41
2019-03-05T16:48:30.022Z,94650.23
2019-03-05T16:51:18.642Z,94646.58
2019-03-05T16:54:05.016Z,94658.05
2019-03-05T16:56:52.363Z,94662.70
2019-03-05T16:59:40.113Z,94667.36
2019-03-05T17:02:47.127Z,94682.80
2019-03-05T17:05:36.464Z,94678.28
2019-03-05T17:08:31.568Z,94688.41
2019-03-05T17:11:35.115Z,94690.22
2019-03-05T17:14:04.769Z,94700.34
2019-03-05T17:16:37.363Z,94707.56
2019-03-05T17:19:06.955Z,94717.92
2019-03-05T17:21:36.745Z,94714.45
2019-03-05T17:24:07.206Z,94720.16
2019-03-05T17:26:37.128Z,94714.61
2019-03-05T17:29:06.855Z,94718.05
2019-03-05T17:31:36.567Z,94721.30
2019-03-05T17:34:06.411Z,94724.67
2019-03-05T17:36:38.222Z,94728.03
2019-03-05T17:39:17.724Z,94723.56
2019-03-05T17:41:47.345Z,94736.02
2019-03-05T17:44:17.235Z,94738.94
2019-03-05T17:46:47.174Z,94741.23
2019-03-05T17:49:16.956Z,94736.67
2019-03-05T17:51:46.776Z,94738.78
2019-03-05T17:54:16.549Z,94737.42
2019-03-05T17:56:46.404Z,94743.91
2019-03-05T17:59:16.003Z,94742.59
2019-03-05T18:01:45.741Z,94750.67
2019-03-05T18:04:15.504Z,94754.34
2019-03-05T18:06:47.499Z,94757.05
2019-03-05T18:09:17.605Z,94756.53
2019-03-05T18:11:47.321Z,94764.82
2019-03-05T18:14:17.245Z,94762.45
2019-03-05T18:16:46.855Z,94759.28
2019-03-05T18:19:16.748Z,94763.75
2019-03-05T18:21:46.357Z,94772.56
2019-03-05T18:24:16.124Z,94770.63
2019-03-05T18:26:45.869Z,94771.56
2019-03-05T18:29:15.547Z,94764.37
2019-03-05T18:31:45.276Z,94771.16
2019-03-05T18:34:15.208Z,94769.70
2019-03-05T18:36:45.973Z,94774.95
2019-03-05T18:39:15.914Z,94772.01
2019-03-05T18:41:45.613Z,94782.64
2019-03-05T18:44:15.490Z,94784.87
2019-03-05T18:46:45.219Z,94788.20
2019-03-05T18:49:15.093Z,94791.01
2019-03-05T18:51:44.931Z,94788.41
2019-03-05T18:54:14.691Z,94788.81
2019-03-05T18:56:44.456Z,94801.13
2019-03-05T18:59:14.185Z,94800.99
2019-03-05T19:01:48.880Z,94807.35
2019-03-05T19:04:21.377Z,94813.22
2019-03-05T19:06:51.121Z,94816.71
2019-03-05T19:09:21.774Z,94810.87
2019-03-05T19:11:51.542Z,94820.90
2019-03-05T19:14:21.068Z,94821.21
2019-03-05T19:16:50.792Z,94820.28
2019-03-05T19:19:20.358Z,94820.98
2019-03-05T19:21:50.001Z,94823.30
2019-03-05T19:24:19.658Z,94824.03
2019-03-05T19:26:49.286Z,94825.49
2019-03-05T19:29:19.015Z,94825.64
2019-03-05T19:31:48.592Z,94821.58
2019-03-05T19:34:18.168Z,94827.94
2019-03-05T19:36:47.950Z,94833.57
2019-03-05T19:39:17.975Z,94835.73
2019-03-05T19:41:55.805Z,94836.47
2019-03-05T19:44:20.661Z,94836.56
2019-03-05T19:46:50.346Z,94840.30
2019-03-05T19:49:19.971Z,94846.97
2019-03-05T19:51:49.934Z,94854.42
2019-03-05T19:54:19.556Z,94857.50
2019-03-05T19:56:49.145Z,94862.99
2019-03-05T19:59:18.779Z,94866.33
2019-03-05T20:01:49.971Z,94870.30
2019-03-05T20:04:19.730Z,94877.78
2019-03-05T20:06:49.408Z,94883.50
2019-03-05T20:09:21.063Z,94883.41
2019-03-05T20:11:50.813Z,94888.28
2019-03-05T20:14:20.514Z,94889.37
2019-03-05T20:16:50.217Z,94895.87
2019-03-05T20:19:20.033Z,94898.69
2019-03-05T20:21:49.734Z,94897.42
2019-03-05T20:24:19.308Z,94895.39
2019-03-05T20:26:49.195Z,94895.23
2019-03-05T20:29:18.815Z,94900.11
2019-03-05T20:31:48.506Z,94903.44
2019-03-05T20:34:18.102Z,94905.86
2019-03-05T20:36:48.034Z,94907.16
2019-03-05T20:39:17.818Z,94916.73
2019-03-05T20:41:47.645Z,94915.97
2019-03-05T20:44:17.344Z,94921.80
2019-03-05T20:46:46.879Z,94931.08
2019-03-05T20:49:18.303Z,94932.03
2019-03-05T20:51:47.881Z,94924.98
2019-03-05T20:54:17.825Z,94922.38
2019-03-05T20:56:47.333Z,94934.13
2019-03-05T20:59:17.015Z,94938.02
2019-03-05T21:01:47.593Z,94939.65
2019-03-05T21:04:17.274Z,94946.69
2019-03-05T21:06:47.265Z,94950.95
2019-03-05T21:09:25.952Z,94961.05
2019-03-05T21:11:55.833Z,94964.38
2019-03-05T21:14:25.936Z,94978.48
2019-03-05T21:16:55.598Z,94991.19
2019-03-05T21:19:25.450Z,95004.12
2019-03-05T21:21:54.943Z,95015.79
2019-03-05T21:24:24.797Z,95026.90
2019-03-05T21:26:54.334Z,95030.03
2019-03-05T21:29:23.963Z,95042.58
2019-03-05T21:31:53.552Z,95051.69
2019-03-05T21:34:23.228Z,95047.48
2019-03-05T21:36:52.961Z,95045.41
2019-03-05T21:39:22.664Z,95053.68
2019-03-05T21:41:52.301Z,95043.86
2019-03-05T21:44:23.200Z,95048.59
2019-03-05T21:46:52.767Z,95047.96
2019-03-05T21:49:22.820Z,95044.78
2019-03-05T21:51:52.500Z,95044.92
2019-03-05T21:54:22.159Z,95049.96
2019-03-05T21:56:51.954Z,95054.44
2019-03-05T21:59:21.699Z,95054.23
2019-03-05T22:01:51.281Z,95054.27
2019-03-05T22:04:20.923Z,95036.73
2019-03-05T22:06:50.544Z,95034.66
2019-03-05T22:09:20.197Z,95018.50
2019-03-05T22:11:49.858Z,95017.91
2019-03-05T22:14:19.623Z,95030.41
2019-03-05T22:16:49.357Z,95044.12
2019-03-05T22:19:19.011Z,95044.51
2019-03-05T22:21:48.649Z,95037.34
2019-03-05T22:24:18.293Z,95046.12
2019-03-05T22:26:48.059Z,95048.55
2019-03-05T22:29:17.636Z,95061.41
2019-03-05T22:31:47.408Z,95062.02
2019-03-05T22:34:17.416Z,95057.88
2019-03-05T22:36:47.137Z,95067.54
2019-03-05T22:39:17.056Z,95065.20
2019-03-05T22:41:47.683Z,95063.31
2019-03-05T22:44:18.362Z,95053.69
2019-03-05T22:46:47.922Z,95062.71
2019-03-05T22:49:17.397Z,95061.47
2019-03-05T22:51:47.152Z,95062.72
2019-03-05T22:54:16.783Z,95068.00
2019-03-05T22:56:46.357Z,95067.24
2019-03-05T22:59:16.002Z,95073.28
2019-03-05T23:01:46.101Z,95076.56
2019-03-05T23:04:19.496Z,95075.37
2019-03-05T23:06:50.501Z,95079.09
2019-03-05T23:09:26.873Z,95074.51
2019-03-05T23:11:56.494Z,95075.00
2019-03-05T23:14:26.532Z,95076.56
2019-03-05T23:16:56.092Z,95082.95
2019-03-05T23:19:25.790Z,95081.89
2019-03-05T23:21:55.559Z,95088.16
2019-03-05T23:24:25.241Z,95084.98
2019-03-05T23:26:54.919Z,95086.94
2019-03-05T23:29:44.775Z,95083.62
2019-03-05T23:32:16.187Z,95082.81
2019-03-05T23:34:45.888Z,95087.27
2019-03-05T23:37:15.390Z,95085.41
2019-03-05T23:39:45.240Z,95090.98
2019-03-05T23:42:14.908Z,95089.03
2019-03-05T23:44:44.578Z,95097.66
2019-03-05T23:47:14.168Z,95097.00
2019-03-05T23:49:43.808Z,95093.22
2019-03-05T23:52:13.504Z,95092.72
2019-03-05T23:54:44.636Z,95094.81
2019-03-05T23:57:14.346Z,95083.09
2019-03-05T23:59:43.998Z,95082.09
